createdAt,value
2019-05-20T00:01:41.411Z,22.00
2019-05-20T00:04:09.716Z,19.90
2019-05-20T00:06:37.997Z,19.67
2019-05-20T00:09:06.473Z,19.17
2019-05-20T00:11:34.972Z,18.27
2019-05-20T00:14:03.256Z,19.82
2019-05-20T00:16:31.541Z,19.73
2019-05-20T00:18:59.870Z,20.57
2019-05-20T00:21:28.180Z,19.20
2019-05-20T00:23:56.465Z,18.82
2019-05-20T00:26:25.793Z,17.45
2019-05-20T00:28:54.088Z,19.27
2019-05-20T00:31:22.450Z,18.42
2019-05-20T00:33:50.749Z,19.65
2019-05-20T00:36:19.056Z,18.55
2019-05-20T00:38:49.017Z,19.37
2019-05-20T00:41:17.333Z,18.40
2019-05-20T00:43:45.630Z,19.70
2019-05-20T00:46:13.913Z,21.60
2019-05-20T00:48:42.209Z,18.33
2019-05-20T00:51:10.504Z,16.60
2019-05-20T00:53:39.649Z,18.23
2019-05-20T00:56:07.946Z,18.77
2019-05-20T00:58:36.294Z,18.80
2019-05-20T01:01:04.853Z,19.70
2019-05-20T01:03:33.132Z,20.27
2019-05-20T01:06:01.419Z,19.40
2019-05-20T01:08:29.724Z,22.70
2019-05-20T01:10:58.013Z,20.70
2019-05-20T01:13:26.341Z,20.27
2019-05-20T01:15:54.648Z,19.87
2019-05-20T01:18:22.917Z,19.20
2019-05-20T01:20:52.979Z,19.90
2019-05-20T01:23:21.253Z,19.40
2019-05-20T01:25:49.557Z,18.80
2019-05-20T01:28:17.865Z,20.47
2019-05-20T01:30:46.152Z,18.80
2019-05-20T01:33:14.650Z,18.80
2019-05-20T01:35:42.922Z,17.87
2019-05-20T01:38:11.212Z,18.70
2019-05-20T01:40:39.504Z,17.70
2019-05-20T01:43:07.790Z,17.80
2019-05-20T01:45:36.080Z,18.70
2019-05-20T01:48:04.402Z,18.95
2019-05-20T01:50:32.735Z,19.67
2019-05-20T01:53:01.041Z,18.80
2019-05-20T01:55:29.350Z,18.50
2019-05-20T01:57:57.668Z,18.57
2019-05-20T02:00:26.023Z,18.92
2019-05-20T02:02:54.315Z,19.83
2019-05-20T02:05:22.609Z,18.80
2019-05-20T02:07:50.901Z,17.80
2019-05-20T02:10:19.347Z,18.37
2019-05-20T02:12:47.653Z,17.20
2019-05-20T02:15:29.380Z,19.17
2019-05-20T02:17:57.695Z,17.12
2019-05-20T02:20:25.977Z,16.00
2019-05-20T02:22:55.899Z,17.20
2019-05-20T02:25:24.186Z,17.00
2019-05-20T02:27:52.527Z,16.73
2019-05-20T02:30:20.810Z,18.50
2019-05-20T02:32:49.088Z,17.47
2019-05-20T02:35:17.381Z,17.20
2019-05-20T02:37:45.664Z,17.53
2019-05-20T02:40:14.227Z,17.42
2019-05-20T02:42:42.518Z,16.97
2019-05-20T02:45:10.882Z,16.83
2019-05-20T02:47:39.185Z,16.05
2019-05-20T02:50:07.731Z,16.80
2019-05-20T02:52:36.018Z,18.60
2019-05-20T02:55:06.138Z,16.10
2019-05-20T02:57:34.424Z,18.00
2019-05-20T03:00:03.145Z,17.67
2019-05-20T03:02:31.475Z,17.57
2019-05-20T03:04:59.739Z,17.80
2019-05-20T03:07:28.105Z,17.43
2019-05-20T03:09:56.419Z,14.40
2019-05-20T03:12:24.703Z,15.43
2019-05-20T03:14:52.999Z,16.70
2019-05-20T03:17:21.293Z,14.60
2019-05-20T03:19:49.586Z,15.30
2019-05-20T03:22:17.892Z,16.93
2019-05-20T03:24:46.197Z,15.70
2019-05-20T03:27:14.480Z,15.88
2019-05-20T03:29:42.772Z,15.32
2019-05-20T03:32:11.229Z,16.20
2019-05-20T03:34:47.725Z,16.87
2019-05-20T03:37:09.548Z,19.40
2019-05-20T03:39:37.856Z,17.07
2019-05-20T03:42:06.134Z,17.63
2019-05-20T03:44:34.450Z,18.87
2019-05-20T03:47:02.764Z,20.17
2019-05-20T03:49:31.064Z,19.97
2019-05-20T03:51:59.360Z,18.17
2019-05-20T03:54:27.654Z,19.27
2019-05-20T03:56:55.963Z,18.87
2019-05-20T03:59:24.256Z,19.77
2019-05-20T04:02:25.685Z,19.32
2019-05-20T04:05:02.517Z,20.07
2019-05-20T04:07:23.995Z,19.60
2019-05-20T04:09:52.316Z,22.20
2019-05-20T04:12:20.629Z,21.43
2019-05-20T04:14:48.925Z,23.13
2019-05-20T04:17:17.218Z,22.15
2019-05-20T04:19:45.534Z,23.00
2019-05-20T04:22:17.026Z,22.07
2019-05-20T04:24:45.316Z,22.30
2019-05-20T04:27:13.592Z,20.77
2019-05-20T04:29:41.886Z,19.20
2019-05-20T04:32:10.748Z,19.55
2019-05-20T04:34:39.051Z,19.10
2019-05-20T04:37:07.320Z,21.00
2019-05-20T04:39:35.621Z,19.50
2019-05-20T04:42:07.239Z,19.17
2019-05-20T04:44:35.646Z,18.40
2019-05-20T04:47:03.910Z,19.70
2019-05-20T04:49:32.217Z,18.10
2019-05-20T04:52:00.524Z,16.90
2019-05-20T04:54:28.810Z,16.42
2019-05-20T04:56:57.098Z,15.27
2019-05-20T04:59:25.394Z,15.05
2019-05-20T05:01:53.695Z,16.20
2019-05-20T05:04:21.985Z,17.50
2019-05-20T05:06:50.259Z,15.43
2019-05-20T05:09:18.635Z,15.10
2019-05-20T05:11:46.885Z,15.07
2019-05-20T05:14:16.999Z,13.70
2019-05-20T05:16:46.947Z,16.45
2019-05-20T05:19:15.910Z,16.45
2019-05-20T05:21:44.248Z,15.48
2019-05-20T05:24:12.622Z,15.13
2019-05-20T05:26:42.038Z,14.50
2019-05-20T05:29:11.605Z,15.00
2019-05-20T05:31:39.939Z,16.30
2019-05-20T05:34:08.988Z,15.10
2019-05-20T05:36:37.298Z,15.25
2019-05-20T05:39:06.831Z,16.27
2019-05-20T05:41:35.169Z,16.20
2019-05-20T05:44:03.509Z,15.73
2019-05-20T05:46:31.863Z,14.43
2019-05-20T05:49:00.290Z,16.67
2019-05-20T05:51:28.635Z,16.67
2019-05-20T05:53:56.918Z,17.93
2019-05-20T05:56:25.567Z,16.23
2019-05-20T05:58:54.417Z,17.30
2019-05-20T06:01:22.789Z,14.90
2019-05-20T06:03:52.706Z,16.00
2019-05-20T06:06:21.090Z,15.80
2019-05-20T06:08:49.424Z,15.23
2019-05-20T06:11:17.794Z,14.63
2019-05-20T06:13:46.919Z,16.30
2019-05-20T06:16:15.625Z,14.70
2019-05-20T06:18:43.941Z,13.77
2019-05-20T06:21:12.266Z,13.73
2019-05-20T06:23:42.978Z,15.05
2019-05-20T06:26:11.391Z,14.10
2019-05-20T06:28:39.826Z,14.68
2019-05-20T06:31:08.425Z,15.53
2019-05-20T06:33:36.836Z,16.60
2019-05-20T06:36:05.215Z,15.48
2019-05-20T06:38:35.219Z,13.90
2019-05-20T06:41:04.966Z,14.35
2019-05-20T06:43:33.373Z,16.50
2019-05-20T06:46:02.103Z,16.00
2019-05-20T06:48:30.439Z,16.43
2019-05-20T06:50:58.777Z,15.30
2019-05-20T06:53:28.216Z,15.68
2019-05-20T06:55:56.455Z,14.47
2019-05-20T06:58:24.831Z,14.35
2019-05-20T07:00:53.172Z,13.55
2019-05-20T07:03:21.568Z,14.58
2019-05-20T07:05:49.864Z,14.77
2019-05-20T07:08:18.239Z,16.07
2019-05-20T07:10:48.849Z,14.60
2019-05-20T07:13:17.196Z,15.67
2019-05-20T07:15:45.579Z,16.83
2019-05-20T07:18:13.925Z,14.40
2019-05-20T07:20:42.339Z,16.80
2019-05-20T07:23:11.519Z,15.80
2019-05-20T07:25:39.889Z,16.93
2019-05-20T07:28:08.203Z,15.30
2019-05-20T07:30:37.895Z,15.00
2019-05-20T07:33:06.200Z,17.00
2019-05-20T07:35:34.694Z,16.40
2019-05-20T07:38:03.053Z,16.47
2019-05-20T07:40:32.375Z,16.50
2019-05-20T07:43:02.146Z,15.80
2019-05-20T07:45:34.324Z,15.70
2019-05-20T07:48:03.235Z,15.57
2019-05-20T07:50:31.750Z,14.43
2019-05-20T07:53:00.705Z,14.60
2019-05-20T07:55:30.885Z,14.97
2019-05-20T07:58:04.605Z,14.90
2019-05-20T08:00:32.966Z,15.13
2019-05-20T08:03:01.283Z,15.80
2019-05-20T08:05:31.198Z,14.07
2019-05-20T08:07:59.724Z,13.43
2019-05-20T08:10:28.073Z,14.50
2019-05-20T08:12:56.466Z,13.33
2019-05-20T08:15:24.779Z,15.33
2019-05-20T08:17:53.858Z,14.30
2019-05-20T08:20:22.628Z,14.27
2019-05-20T08:22:50.993Z,15.00
2019-05-20T08:25:20.208Z,14.33
2019-05-20T08:27:50.998Z,14.33
2019-05-20T08:30:23.753Z,15.75
2019-05-20T08:32:52.104Z,15.45
2019-05-20T08:35:23.664Z,16.60
2019-05-20T08:37:50.991Z,15.27
2019-05-20T08:40:19.337Z,16.60
2019-05-20T08:42:47.641Z,16.10
2019-05-20T08:45:16.087Z,16.07
2019-05-20T08:47:44.415Z,16.07
2019-05-20T08:50:16.231Z,15.97
2019-05-20T08:52:43.184Z,14.83
2019-05-20T08:55:13.777Z,15.37
2019-05-20T08:57:43.775Z,14.80
2019-05-20T09:00:23.577Z,15.23
2019-05-20T09:02:51.372Z,14.90
2019-05-20T09:05:19.685Z,13.60
2019-05-20T09:08:01.436Z,14.78
2019-05-20T09:10:21.778Z,14.15
2019-05-20T09:12:51.403Z,13.27
2019-05-20T09:15:20.716Z,14.37
2019-05-20T09:17:49.113Z,12.40
2019-05-20T09:20:20.205Z,13.40
2019-05-20T09:22:48.564Z,12.90
2019-05-20T09:25:18.694Z,13.27
2019-05-20T09:27:47.737Z,14.07
2019-05-20T09:30:16.192Z,14.20
2019-05-20T09:32:44.555Z,13.15
2019-05-20T09:35:13.398Z,13.60
2019-05-20T09:37:41.743Z,13.28
2019-05-20T09:40:10.756Z,14.00
2019-05-20T09:42:41.041Z,12.30
2019-05-20T09:45:09.710Z,13.00
2019-05-20T09:47:38.418Z,12.70
2019-05-20T09:50:08.671Z,11.60
2019-05-20T09:52:37.877Z,11.65
2019-05-20T09:55:09.001Z,12.18
2019-05-20T09:57:38.102Z,11.50
2019-05-20T10:00:13.793Z,11.27
2019-05-20T10:02:43.132Z,9.67
2019-05-20T10:05:11.648Z,9.93
2019-05-20T10:07:39.991Z,12.50
2019-05-20T10:10:08.787Z,11.33
2019-05-20T10:12:46.188Z,12.00
2019-05-20T10:15:09.215Z,11.97
2019-05-20T10:17:37.495Z,11.50
2019-05-20T10:20:08.018Z,12.10
2019-05-20T10:22:38.924Z,10.67
2019-05-20T10:25:11.145Z,11.40
2019-05-20T10:27:41.779Z,8.67
2019-05-20T10:30:15.118Z,10.07
2019-05-20T10:32:43.541Z,10.53
2019-05-20T10:35:15.448Z,9.80
2019-05-20T10:37:43.852Z,11.33
2019-05-20T10:40:12.386Z,10.13
2019-05-20T10:42:43.185Z,10.10
2019-05-20T10:45:11.782Z,10.67
2019-05-20T10:47:41.379Z,11.50
2019-05-20T10:50:09.892Z,11.30
2019-05-20T10:52:38.191Z,10.48
2019-05-20T10:55:07.992Z,9.63
2019-05-20T10:57:37.379Z,10.40
2019-05-20T11:00:07.285Z,10.95
2019-05-20T11:02:35.577Z,9.33
2019-05-20T11:05:07.177Z,10.82
2019-05-20T11:07:39.627Z,9.88
2019-05-20T11:10:11.593Z,9.73
2019-05-20T11:12:39.873Z,8.30
2019-05-20T11:15:09.139Z,8.90
2019-05-20T11:17:38.617Z,8.60
2019-05-20T11:20:10.442Z,8.27
2019-05-20T11:22:38.713Z,8.80
2019-05-20T11:25:09.608Z,8.40
2019-05-20T11:27:37.881Z,9.00
2019-05-20T11:30:09.980Z,8.30
2019-05-20T11:32:39.581Z,9.38
2019-05-20T11:35:09.402Z,9.10
2019-05-20T11:37:37.690Z,9.27
2019-05-20T11:40:09.635Z,9.80
2019-05-20T11:42:40.051Z,9.70
2019-05-20T11:45:09.355Z,10.00
2019-05-20T11:47:37.638Z,9.97
2019-05-20T11:50:09.281Z,11.77
2019-05-20T11:52:41.203Z,10.30
2019-05-20T11:55:13.114Z,13.07
2019-05-20T11:57:41.385Z,11.40
2019-05-20T12:00:14.656Z,11.70
2019-05-20T12:02:44.338Z,11.97
2019-05-20T12:05:14.647Z,13.00
2019-05-20T12:07:45.972Z,11.87
2019-05-20T12:10:15.780Z,11.63
2019-05-20T12:12:46.276Z,11.15
2019-05-20T12:15:15.409Z,13.43
2019-05-20T12:17:44.364Z,14.07
2019-05-20T12:20:12.963Z,12.13
2019-05-20T12:22:52.809Z,11.27
2019-05-20T12:25:21.087Z,13.03
2019-05-20T12:27:49.425Z,12.27
2019-05-20T12:30:17.707Z,11.83
2019-05-20T12:32:46.228Z,12.17
2019-05-20T12:35:14.708Z,13.67
2019-05-20T12:37:45.690Z,13.60
2019-05-20T12:40:13.286Z,12.93
2019-05-20T12:42:44.324Z,13.03
2019-05-20T12:45:15.417Z,12.57
2019-05-20T12:47:43.716Z,13.80
2019-05-20T12:50:14.778Z,12.20
2019-05-20T12:52:46.176Z,13.23
2019-05-20T12:55:14.546Z,14.43
2019-05-20T12:57:45.303Z,12.73
2019-05-20T13:00:17.122Z,12.13
2019-05-20T13:02:45.541Z,13.37
2019-05-20T13:05:14.603Z,12.40
2019-05-20T13:07:43.541Z,13.30
2019-05-20T13:10:29.240Z,13.37
2019-05-20T13:12:44.264Z,13.13
2019-05-20T13:15:14.336Z,13.80
2019-05-20T13:17:45.416Z,14.27
2019-05-20T13:20:19.103Z,12.37
2019-05-20T13:22:47.314Z,13.47
2019-05-20T13:25:15.673Z,13.20
2019-05-20T13:27:45.620Z,13.45
2019-05-20T13:30:14.284Z,13.55
2019-05-20T13:32:42.786Z,13.70
2019-05-20T13:35:11.383Z,12.63
2019-05-20T13:37:40.926Z,13.65
2019-05-20T13:40:12.131Z,13.13
2019-05-20T13:42:40.451Z,13.37
2019-05-20T13:45:11.335Z,14.40
2019-05-20T13:47:39.623Z,13.00
2019-05-20T13:50:08.985Z,14.30
2019-05-20T13:52:39.186Z,13.87
2019-05-20T13:55:10.005Z,13.17
2019-05-20T13:57:40.629Z,13.47
2019-05-20T14:00:09.577Z,14.30
2019-05-20T14:02:38.044Z,14.10
2019-05-20T14:05:06.561Z,14.00
2019-05-20T14:07:38.219Z,14.07
2019-05-20T14:10:08.304Z,14.70
2019-05-20T14:12:36.583Z,14.70
2019-05-20T14:15:06.275Z,13.45
2019-05-20T14:17:37.211Z,13.10
2019-05-20T14:20:06.743Z,14.83
2019-05-20T14:22:36.648Z,13.00
2019-05-20T14:25:06.620Z,14.87
2019-05-20T14:27:34.890Z,13.83
2019-05-20T14:30:05.183Z,17.47
2019-05-20T14:32:33.541Z,14.80
2019-05-20T14:35:14.131Z,15.35
2019-05-20T14:37:42.424Z,14.67
2019-05-20T14:40:10.859Z,15.50
2019-05-20T14:42:39.617Z,15.10
2019-05-20T14:45:08.076Z,16.15
2019-05-20T14:47:38.845Z,15.18
2019-05-20T14:50:07.962Z,15.88
2019-05-20T14:52:40.010Z,15.50
2019-05-20T14:55:08.571Z,15.47
2019-05-20T14:57:36.936Z,15.47
2019-05-20T15:00:12.984Z,13.83
2019-05-20T15:02:41.278Z,14.87
2019-05-20T15:05:15.062Z,15.37
2019-05-20T15:07:43.796Z,14.60
2019-05-20T15:10:15.531Z,15.53
2019-05-20T15:12:44.643Z,14.40
2019-05-20T15:15:14.900Z,15.48
2019-05-20T15:17:47.459Z,14.90
2019-05-20T15:20:16.906Z,14.03
2019-05-20T15:22:46.134Z,15.53
2019-05-20T15:25:15.825Z,14.45
2019-05-20T15:27:45.955Z,14.33
2019-05-20T15:30:14.613Z,14.80
2019-05-20T15:32:42.957Z,15.40
2019-05-20T15:35:12.767Z,14.67
2019-05-20T15:37:41.073Z,13.75
2019-05-20T15:40:11.112Z,15.00
2019-05-20T15:42:39.435Z,14.43
2019-05-20T15:45:11.910Z,13.90
2019-05-20T15:47:42.144Z,13.80
2019-05-20T15:50:12.357Z,14.37
2019-05-20T15:52:40.668Z,14.43
2019-05-20T15:55:09.294Z,12.90
2019-05-20T15:57:38.126Z,13.85
2019-05-20T16:00:08.360Z,13.83
2019-05-20T16:02:39.933Z,12.25
2019-05-20T16:05:08.512Z,12.80
2019-05-20T16:07:36.879Z,13.73
2019-05-20T16:10:09.339Z,12.33
2019-05-20T16:12:39.269Z,13.50
2019-05-20T16:15:10.298Z,13.47
2019-05-20T16:17:47.995Z,12.55
2019-05-20T16:20:15.928Z,12.60
2019-05-20T16:22:44.395Z,12.83
2019-05-20T16:25:17.495Z,12.40
2019-05-20T16:27:45.813Z,13.17
2019-05-20T16:30:14.748Z,12.57
2019-05-20T16:32:43.619Z,13.37
2019-05-20T16:35:11.935Z,12.23
2019-05-20T16:37:42.706Z,15.15
2019-05-20T16:40:11.508Z,12.97
2019-05-20T16:42:43.269Z,14.40
2019-05-20T16:45:12.434Z,13.33
2019-05-20T16:47:40.934Z,13.40
2019-05-20T16:50:10.402Z,13.63
2019-05-20T16:52:38.763Z,12.20
2019-05-20T16:55:08.043Z,13.95
2019-05-20T16:57:37.931Z,11.43
2019-05-20T17:00:27.401Z,11.90
2019-05-20T17:02:37.877Z,11.77
2019-05-20T17:05:06.726Z,12.70
2019-05-20T17:07:35.011Z,12.93
2019-05-20T17:10:05.168Z,11.57
2019-05-20T17:12:33.471Z,11.13
2019-05-20T17:15:02.264Z,11.10
2019-05-20T17:17:30.554Z,10.53
2019-05-20T17:20:01.779Z,11.60
2019-05-20T17:22:31.043Z,11.53
2019-05-20T17:25:02.004Z,11.27
2019-05-20T17:27:31.604Z,11.90
2019-05-20T17:30:03.575Z,10.70
2019-05-20T17:32:32.333Z,11.17
2019-05-20T17:35:00.731Z,10.47
2019-05-20T17:37:29.130Z,9.90
2019-05-20T17:39:57.434Z,10.20
2019-05-20T17:42:25.811Z,11.03
2019-05-20T17:44:54.582Z,10.90
2019-05-20T17:47:22.866Z,9.40
2019-05-20T17:49:51.149Z,9.77
2019-05-20T17:52:20.376Z,9.67
2019-05-20T17:54:48.733Z,10.47
2019-05-20T17:57:18.699Z,9.30
2019-05-20T17:59:46.991Z,9.53
2019-05-20T18:02:15.316Z,11.37
2019-05-20T18:04:43.910Z,10.03
2019-05-20T18:07:12.229Z,9.50
2019-05-20T18:09:42.167Z,9.80
2019-05-20T18:12:10.530Z,11.00
2019-05-20T18:14:38.989Z,9.70
2019-05-20T18:17:07.291Z,10.80
2019-05-20T18:19:37.276Z,11.20
2019-05-20T18:22:05.580Z,12.93
2019-05-20T18:24:33.956Z,11.30
2019-05-20T18:27:02.283Z,10.63
2019-05-20T18:29:34.035Z,10.00
2019-05-20T18:32:02.398Z,10.10
2019-05-20T18:34:30.721Z,10.60
2019-05-20T18:36:59.003Z,10.20
2019-05-20T18:39:27.274Z,9.48
2019-05-20T18:41:56.295Z,8.23
2019-05-20T18:44:25.656Z,8.60
2019-05-20T18:46:53.998Z,9.77
2019-05-20T18:49:22.334Z,7.35
2019-05-20T18:51:50.655Z,8.03
2019-05-20T18:54:23.328Z,8.93
2019-05-20T18:56:53.686Z,8.73
2019-05-20T18:59:21.998Z,8.07
2019-05-20T19:02:04.682Z,9.13
2019-05-20T19:04:21.038Z,8.30
2019-05-20T19:06:49.421Z,8.30
2019-05-20T19:09:18.166Z,8.75
2019-05-20T19:11:48.123Z,8.57
2019-05-20T19:14:16.419Z,9.23
2019-05-20T19:16:44.804Z,8.70
2019-05-20T19:19:13.202Z,8.93
2019-05-20T19:21:41.507Z,9.37
2019-05-20T19:24:09.862Z,10.27
2019-05-20T19:26:38.208Z,11.80
2019-05-20T19:29:06.552Z,11.70
2019-05-20T19:31:36.028Z,11.47
2019-05-20T19:34:05.396Z,13.57
2019-05-20T19:36:33.757Z,12.33
2019-05-20T19:39:02.820Z,12.77
2019-05-20T19:41:31.128Z,13.00
2019-05-20T19:43:59.459Z,14.30
2019-05-20T19:46:27.819Z,14.10
2019-05-20T19:48:56.143Z,12.40
2019-05-20T19:51:25.724Z,14.07
2019-05-20T19:53:56.618Z,15.32
2019-05-20T19:56:24.909Z,13.37
2019-05-20T19:58:53.244Z,14.47
2019-05-20T20:01:21.706Z,12.33
2019-05-20T20:03:52.983Z,14.03
2019-05-20T20:06:25.901Z,14.13
2019-05-20T20:08:54.233Z,12.80
2019-05-20T20:11:22.508Z,13.20
2019-05-20T20:13:50.797Z,14.70
2019-05-20T20:16:19.097Z,11.87
2019-05-20T20:18:47.387Z,12.70
2019-05-20T20:21:16.412Z,12.55
2019-05-20T20:23:44.707Z,13.68
2019-05-20T20:26:13.007Z,13.80
2019-05-20T20:28:41.318Z,14.63
2019-05-20T20:31:11.066Z,14.87
2019-05-20T20:33:39.866Z,14.40
2019-05-20T20:36:08.162Z,14.30
2019-05-20T20:38:36.448Z,14.17
2019-05-20T20:41:04.748Z,13.00
2019-05-20T20:43:33.037Z,12.50
2019-05-20T20:46:01.428Z,13.93
2019-05-20T20:48:29.698Z,13.48
2019-05-20T20:50:57.982Z,14.17
2019-05-20T20:53:26.276Z,15.33
2019-05-20T20:55:54.552Z,15.10
2019-05-20T20:58:22.850Z,14.53
2019-05-20T21:00:51.158Z,12.87
2019-05-20T21:03:19.454Z,12.43
2019-05-20T21:05:47.761Z,12.87
2019-05-20T21:08:16.058Z,13.63
2019-05-20T21:10:44.338Z,12.57
2019-05-20T21:13:12.628Z,13.13
2019-05-20T21:15:40.901Z,13.40
2019-05-20T21:18:09.205Z,12.00
2019-05-20T21:20:37.499Z,12.50
2019-05-20T21:23:05.805Z,11.00
2019-05-20T21:25:34.080Z,10.57
2019-05-20T21:28:02.378Z,10.87
2019-05-20T21:30:30.657Z,11.27
2019-05-20T21:33:08.720Z,9.70
2019-05-20T21:35:28.969Z,11.40
2019-05-20T21:37:57.250Z,10.77
2019-05-20T21:40:25.537Z,9.78
2019-05-20T21:42:53.817Z,9.73
2019-05-20T21:45:22.138Z,9.90
2019-05-20T21:47:50.400Z,9.70
2019-05-20T21:50:18.709Z,10.30
2019-05-20T21:52:46.992Z,9.97
2019-05-20T21:55:15.278Z,9.70
2019-05-20T21:57:43.552Z,9.63
2019-05-20T22:00:13.553Z,8.80
2019-05-20T22:02:41.830Z,9.40
2019-05-20T22:05:10.461Z,9.10
2019-05-20T22:07:38.799Z,10.20
2019-05-20T22:10:07.484Z,9.53
2019-05-20T22:12:35.783Z,9.88
2019-05-20T22:15:06.191Z,9.63
2019-05-20T22:17:34.478Z,9.25
2019-05-20T22:20:02.833Z,9.43
2019-05-20T22:22:32.753Z,8.75
2019-05-20T22:25:01.145Z,8.57
2019-05-20T22:27:29.381Z,8.43
2019-05-20T22:29:57.675Z,8.70
2019-05-20T22:32:25.982Z,8.45
2019-05-20T22:34:54.252Z,8.85
2019-05-20T22:37:22.572Z,9.30
2019-05-20T22:39:50.849Z,8.30
2019-05-20T22:42:19.152Z,8.33
2019-05-20T22:44:47.428Z,7.87
2019-05-20T22:47:15.732Z,8.57
2019-05-20T22:49:44.035Z,7.72
2019-05-20T22:52:12.312Z,7.87
2019-05-20T22:54:40.619Z,8.00
2019-05-20T22:57:08.938Z,7.80
2019-05-20T22:59:37.203Z,7.03
2019-05-20T23:02:05.497Z,6.53
2019-05-20T23:04:33.776Z,7.20
2019-05-20T23:07:02.068Z,7.67
2019-05-20T23:09:30.335Z,7.20
2019-05-20T23:12:01.346Z,6.87
2019-05-20T23:14:29.635Z,7.03
2019-05-20T23:16:57.937Z,7.60
2019-05-20T23:19:26.211Z,6.50
2019-05-20T23:21:54.510Z,6.37
2019-05-20T23:24:22.816Z,7.00
2019-05-20T23:26:51.161Z,6.13
2019-05-20T23:29:19.469Z,6.37
2019-05-20T23:31:47.748Z,6.20
2019-05-20T23:34:16.116Z,6.20
2019-05-20T23:36:44.407Z,6.80
2019-05-20T23:39:12.724Z,7.07
2019-05-20T23:41:40.997Z,5.97
2019-05-20T23:44:09.284Z,7.10
2019-05-20T23:46:37.655Z,5.83
2019-05-20T23:49:05.928Z,6.63
2019-05-20T23:51:34.225Z,7.70
2019-05-20T23:54:02.487Z,7.17
2019-05-20T23:56:30.799Z,7.10
2019-05-20T23:58:59.072Z,6.65
